Time;durP1;ratioP1;P1;durP2;ratioP2;P2;SDS_P1;SDS_P2;PMS_P1;PMS_P2;Temp;Humidity;BMP_temperature;BMP_pressure;BME280_temperature;BME280_humidity;BME280_pressure;Samples;Min_cycle;Max_cycle;Signal;HPM_P1;HPM_P2
2021/12/31 00:00:22;;;;;;;7.55;2.70;;;12.60;94.70;;;;;;4953483;28;20031;-65
2021/12/31 00:02:47;;;;;;;5.43;2.28;;;12.60;94.70;;;;;;4952480;28;20031;-66
2021/12/31 00:05:13;;;;;;;4.50;2.30;;;12.60;94.60;;;;;;4950484;28;20039;-65
2021/12/31 00:07:39;;;;;;;4.80;2.53;;;12.50;94.50;;;;;;4955617;28;20555;-65
2021/12/31 00:10:06;;;;;;;2.78;1.83;;;12.50;94.50;;;;;;4953359;28;20043;-65
2021/12/31 00:12:32;;;;;;;4.40;2.40;;;12.50;94.60;;;;;;4953574;28;20031;-65
2021/12/31 00:14:59;;;;;;;4.05;2.33;;;12.50;94.50;;;;;;4953544;28;20018;-65
2021/12/31 00:17:25;;;;;;;4.50;2.30;;;12.50;94.60;;;;;;4948087;28;20164;-65
2021/12/31 00:20:00;;;;;;;3.88;2.13;;;12.50;94.60;;;;;;4955086;28;20511;-65
2021/12/31 00:25:07;;;;;;;4.32;2.40;;;12.50;94.60;;;;;;4953324;28;20110;-65
2021/12/31 00:27:33;;;;;;;3.38;1.75;;;12.50;94.60;;;;;;4953384;28;20102;-65
2021/12/31 00:29:58;;;;;;;4.00;1.92;;;12.50;94.70;;;;;;4953237;28;20019;-65
2021/12/31 00:32:24;;;;;;;6.25;2.13;;;12.50;94.60;;;;;;4949094;28;20069;-65
2021/12/31 00:34:50;;;;;;;3.45;2.03;;;12.50;94.60;;;;;;4962319;28;20088;-65
2021/12/31 00:37:30;;;;;;;4.72;2.08;;;12.50;94.60;;;;;;4953608;28;20037;-65
2021/12/31 00:39:56;;;;;;;3.92;2.00;;;12.50;94.60;;;;;;4953340;28;20031;-65
2021/12/31 00:42:22;;;;;;;5.22;2.22;;;12.50;94.80;;;;;;4953059;28;20035;-65
2021/12/31 00:44:48;;;;;;;5.43;2.13;;;12.50;94.60;;;;;;4952443;28;20027;-65
2021/12/31 00:47:14;;;;;;;5.38;2.50;;;12.50;94.60;;;;;;4953081;28;20106;-65
2021/12/31 00:49:40;;;;;;;5.95;2.85;;;12.50;94.40;;;;;;4958506;28;20071;-65
2021/12/31 00:52:07;;;;;;;3.30;1.80;;;12.40;94.50;;;;;;4956647;28;20070;-65
2021/12/31 00:54:33;;;;;;;3.03;2.20;;;12.50;94.70;;;;;;4956491;28;20031;-65
2021/12/31 00:57:03;;;;;;;4.63;2.00;;;12.50;94.60;;;;;;4956685;28;20023;-65
2021/12/31 00:59:31;;;;;;;4.50;2.30;;;12.40;94.50;;;;;;4952445;28;20110;-65
2021/12/31 01:02:03;;;;;;;4.82;2.55;;;12.40;94.40;;;;;;4956579;28;20042;-65
2021/12/31 01:04:30;;;;;;;5.50;2.45;;;12.30;94.40;;;;;;4957766;28;20500;-65
2021/12/31 01:06:57;;;;;;;4.03;1.85;;;12.30;94.50;;;;;;4956405;28;20045;-65
2021/12/31 01:09:23;;;;;;;4.18;2.20;;;12.30;94.90;;;;;;4956347;28;20023;-65
2021/12/31 01:11:49;;;;;;;3.60;2.08;;;12.30;94.60;;;;;;4954117;28;20049;-65
2021/12/31 01:14:30;;;;;;;4.20;2.30;;;12.30;94.60;;;;;;4952483;28;20042;-65
2021/12/31 01:17:02;;;;;;;5.15;2.50;;;12.30;94.60;;;;;;4968879;28;20085;-65
2021/12/31 01:19:46;;;;;;;3.63;2.25;;;12.30;94.50;;;;;;4957376;28;20023;-65
2021/12/31 01:22:29;;;;;;;3.90;2.70;;;12.30;94.30;;;;;;4956160;28;20035;-65
2021/12/31 01:24:55;;;;;;;;;;;12.30;94.60;;;;;;4956446;28;20035;-65
2021/12/31 01:27:21;;;;;;;5.45;2.28;;;12.30;94.40;;;;;;4956156;28;20346;-65
2021/12/31 01:29:47;;;;;;;4.88;2.35;;;12.20;94.60;;;;;;4954733;28;20080;-65
2021/12/31 01:32:13;;;;;;;5.90;2.53;;;12.20;94.60;;;;;;4952871;28;20085;-65
2021/12/31 01:34:39;;;;;;;4.82;2.08;;;12.20;94.60;;;;;;4963882;28;20434;-65
2021/12/31 01:37:06;;;;;;;2.75;2.20;;;12.10;94.50;;;;;;4957684;28;20118;-65
2021/12/31 01:39:32;;;;;;;3.05;1.90;;;12.10;94.30;;;;;;4955043;28;20027;-65
2021/12/31 01:42:00;;;;;;;3.30;1.90;;;12.10;94.10;;;;;;4955880;28;20069;-65
2021/12/31 01:44:35;;;;;;;4.28;2.08;;;12.00;94.00;;;;;;4951774;28;20019;-65
2021/12/31 01:47:08;;;;;;;4.50;1.92;;;12.00;94.30;;;;;;4955171;28;20463;-65
2021/12/31 01:49:37;;;;;;;;;;;12.10;94.20;;;;;;4960973;28;20081;-65
2021/12/31 01:52:04;;;;;;;5.30;1.95;;;12.10;94.40;;;;;;4957853;28;19910;-65
2021/12/31 01:54:30;;;;;;;3.30;1.95;;;12.10;94.90;;;;;;4955531;28;20488;-65
2021/12/31 01:57:00;;;;;;;2.90;1.70;;;12.10;94.20;;;;;;4953649;28;20453;-66
2021/12/31 01:59:26;;;;;;;3.70;1.92;;;12.00;94.00;;;;;;4951944;28;20031;-65
2021/12/31 02:01:53;;;;;;;3.47;2.05;;;12.00;94.50;;;;;;4957427;28;20039;-65
2021/12/31 02:04:18;;;;;;;5.32;2.20;;;12.00;94.50;;;;;;4956121;28;20023;-65
2021/12/31 02:06:44;;;;;;;5.90;2.63;;;11.90;94.10;;;;;;4955974;28;20031;-65
2021/12/31 02:09:10;;;;;;;4.15;2.40;;;11.90;94.40;;;;;;4955754;28;20019;-66
2021/12/31 02:11:35;;;;;;;6.07;2.72;;;11.80;94.50;;;;;;4953109;28;20625;-65
2021/12/31 02:14:03;;;;;;;4.03;2.70;;;11.70;94.60;;;;;;4954988;28;20027;-65
2021/12/31 02:16:31;;;;;;;3.92;2.70;;;11.80;94.90;;;;;;4956963;28;20057;-65
2021/12/31 02:19:13;;;;;;;3.67;2.22;;;11.80;94.70;;;;;;4955295;28;20388;-65
2021/12/31 02:21:43;;;;;;;6.15;3.00;;;11.70;94.60;;;;;;4955135;28;20038;-65
2021/12/31 02:24:09;;;;;;;3.72;2.38;;;11.70;94.60;;;;;;4955225;28;20144;-66
2021/12/31 02:26:34;;;;;;;6.70;2.78;;;11.70;95.00;;;;;;4952244;28;20122;-65
2021/12/31 02:29:00;;;;;;;5.05;2.42;;;11.80;94.90;;;;;;4955098;28;20499;-65
2021/12/31 02:31:25;;;;;;;4.32;2.40;;;11.70;94.70;;;;;;4956421;28;20392;-65
2021/12/31 02:33:51;;;;;;;4.68;2.40;;;11.70;94.80;;;;;;4955224;28;20110;-65
2021/12/31 02:36:17;;;;;;;3.80;2.30;;;11.70;94.80;;;;;;4962756;28;20039;-65
2021/12/31 02:38:44;;;;;;;4.38;2.33;;;11.70;94.80;;;;;;4953484;28;20042;-65
2021/12/31 02:41:10;;;;;;;5.63;2.50;;;11.70;94.80;;;;;;4951874;28;20023;-65
2021/12/31 02:43:36;;;;;;;4.05;2.45;;;11.70;94.70;;;;;;4957023;28;20019;-65
2021/12/31 02:46:02;;;;;;;4.50;2.40;;;11.70;94.80;;;;;;4954912;28;20027;-65
2021/12/31 02:48:28;;;;;;;3.70;2.30;;;11.70;94.80;;;;;;4954899;28;20042;-65
2021/12/31 02:50:57;;;;;;;4.65;2.60;;;11.80;94.70;;;;;;4954711;28;20048;-65
2021/12/31 02:53:36;;;;;;;4.35;2.50;;;11.80;94.80;;;;;;4950623;28;20024;-65
2021/12/31 02:56:09;;;;;;;3.47;2.20;;;11.80;94.70;;;;;;4964194;28;20063;-65
2021/12/31 02:58:36;;;;;;;3.35;2.00;;;11.80;94.40;;;;;;4954875;28;20476;-65
2021/12/31 03:01:03;;;;;;;3.10;2.08;;;11.70;94.30;;;;;;4954637;28;20453;-65
2021/12/31 03:03:32;;;;;;;3.78;2.00;;;11.70;94.40;;;;;;4954539;28;20030;-65
2021/12/31 03:05:59;;;;;;;3.28;2.30;;;11.70;94.20;;;;;;4954723;28;20475;-65
2021/12/31 03:08:28;;;;;;;4.90;2.33;;;11.60;94.10;;;;;;4950504;28;20106;-65
2021/12/31 03:10:57;;;;;;;4.43;2.20;;;11.60;94.30;;;;;;4954925;28;20051;-65
2021/12/31 03:13:24;;;;;;;4.75;2.15;;;11.60;94.60;;;;;;4953723;28;20451;-64
2021/12/31 03:15:53;;;;;;;2.42;2.00;;;11.60;94.70;;;;;;4954363;28;20019;-64
2021/12/31 03:18:19;;;;;;;5.07;2.10;;;11.60;94.70;;;;;;4954449;28;20023;-65
2021/12/31 03:21:04;;;;;;;4.15;2.38;;;11.60;94.60;;;;;;4953099;28;20023;-64
2021/12/31 03:23:31;;;;;;;3.30;1.92;;;11.70;94.50;;;;;;4949664;28;20077;-65
2021/12/31 03:25:56;;;;;;;4.25;2.28;;;11.60;94.60;;;;;;4954305;28;20055;-64
2021/12/31 03:28:23;;;;;;;5.30;2.20;;;11.60;94.60;;;;;;4954842;28;20121;-64
2021/12/31 03:30:49;;;;;;;4.00;2.28;;;11.60;94.60;;;;;;4954341;28;20027;-64
2021/12/31 03:33:15;;;;;;;2.33;2.03;;;11.60;94.60;;;;;;4954240;28;20031;-64
2021/12/31 03:35:42;;;;;;;3.20;2.10;;;11.60;94.60;;;;;;4960020;28;20059;-64
2021/12/31 03:38:08;;;;;;;3.10;1.80;;;11.60;95.00;;;;;;4951807;28;20059;-64
2021/12/31 03:40:33;;;;;;;5.07;2.28;;;11.60;94.60;;;;;;4953661;28;20027;-64
2021/12/31 03:42:59;;;;;;;4.85;2.05;;;11.70;94.80;;;;;;4954038;28;20035;-64
2021/12/31 03:45:25;;;;;;;2.15;1.55;;;11.70;94.70;;;;;;4954143;28;20372;-64
2021/12/31 03:47:51;;;;;;;3.55;2.00;;;11.70;94.40;;;;;;4953606;28;20538;-64
2021/12/31 03:50:17;;;;;;;4.90;2.05;;;11.70;94.30;;;;;;4950311;28;20020;-64
2021/12/31 03:52:42;;;;;;;4.72;2.22;;;11.70;94.40;;;;;;4955867;28;20082;-64
2021/12/31 03:55:10;;;;;;;5.32;2.58;;;11.70;94.40;;;;;;4953657;28;20035;-64
2021/12/31 03:57:37;;;;;;;4.03;2.28;;;11.60;94.40;;;;;;4953878;28;20038;-65
2021/12/31 04:00:05;;;;;;;5.03;2.50;;;11.60;94.60;;;;;;4954052;28;20030;-64
2021/12/31 04:02:31;;;;;;;2.67;1.85;;;11.60;94.50;;;;;;4950343;28;20122;-64
2021/12/31 04:04:56;;;;;;;3.88;2.30;;;11.60;94.50;;;;;;4952754;28;20106;-64
2021/12/31 04:07:22;;;;;;;4.25;2.35;;;11.60;94.40;;;;;;4954606;28;20039;-64
2021/12/31 04:09:48;;;;;;;3.30;2.25;;;11.60;94.40;;;;;;4953265;28;20591;-64
2021/12/31 04:12:14;;;;;;;4.45;2.53;;;11.60;94.30;;;;;;4953439;28;20514;-64
2021/12/31 04:14:40;;;;;;;4.85;2.50;;;11.50;94.00;;;;;;4951493;28;20055;-64
2021/12/31 04:17:05;;;;;;;4.38;2.58;;;11.40;94.10;;;;;;4951818;28;20027;-64
2021/12/31 04:19:31;;;;;;;4.32;2.55;;;11.30;94.20;;;;;;4955168;28;20027;-64
2021/12/31 04:21:57;;;;;;;6.90;2.47;;;11.30;94.30;;;;;;4953205;28;20043;-64
2021/12/31 04:24:52;;;;;;;5.25;2.63;;;11.30;94.40;;;;;;4953093;28;20023;-65
2021/12/31 04:27:19;;;;;;;4.05;2.28;;;11.20;94.20;;;;;;4952325;28;20108;-64
2021/12/31 04:29:51;;;;;;;3.50;2.30;;;11.20;94.70;;;;;;4952144;28;20085;-64
2021/12/31 04:32:17;;;;;;;4.28;2.17;;;11.20;94.70;;;;;;4949851;28;20054;-64
2021/12/31 04:34:43;;;;;;;4.07;2.20;;;11.30;94.70;;;;;;4961993;28;20015;-64
2021/12/31 04:37:09;;;;;;;4.35;1.98;;;11.30;94.70;;;;;;4954278;28;20038;-65
2021/12/31 04:39:34;;;;;;;2.78;1.77;;;11.40;94.60;;;;;;4953289;28;20439;-65
2021/12/31 04:42:00;;;;;;;2.67;1.88;;;11.40;94.40;;;;;;4953267;28;20031;-64
2021/12/31 04:44:26;;;;;;;4.03;2.25;;;11.50;94.40;;;;;;4948015;28;20032;-65
2021/12/31 04:46:52;;;;;;;2.78;2.13;;;11.50;94.40;;;;;;4955153;28;20035;-64
2021/12/31 04:49:17;;;;;;;4.10;2.40;;;11.40;94.30;;;;;;4953194;28;20031;-64
2021/12/31 04:51:43;;;;;;;3.30;2.00;;;11.50;94.40;;;;;;4952827;28;20118;-64
2021/12/31 04:54:14;;;;;;;4.07;2.20;;;11.50;94.30;;;;;;4952964;28;20031;-64
2021/12/31 04:56:40;;;;;;;3.42;2.30;;;11.60;94.20;;;;;;4951142;28;20058;-64
2021/12/31 04:59:06;;;;;;;6.00;2.50;;;11.50;94.10;;;;;;4951348;28;20020;-64
2021/12/31 05:01:31;;;;;;;5.38;2.25;;;11.40;94.30;;;;;;4954744;28;20515;-65
2021/12/31 05:03:57;;;;;;;4.15;2.35;;;11.40;94.30;;;;;;4951726;28;20055;-65
2021/12/31 05:06:22;;;;;;;3.47;2.10;;;11.40;94.30;;;;;;4952679;28;20111;-65
2021/12/31 05:08:48;;;;;;;4.07;2.40;;;11.30;94.30;;;;;;4952014;28;20456;-65
2021/12/31 05:11:14;;;;;;;4.70;2.47;;;11.30;94.40;;;;;;4949786;28;20466;-65
2021/12/31 05:13:39;;;;;;;4.75;2.78;;;11.30;94.40;;;;;;4954953;28;20023;-65
2021/12/31 05:16:06;;;;;;;2.60;2.28;;;11.30;94.40;;;;;;4953024;28;20039;-64
2021/12/31 05:18:32;;;;;;;3.60;2.38;;;11.30;94.50;;;;;;4953036;28;20042;-64
2021/12/31 05:20:58;;;;;;;3.17;2.30;;;11.20;94.60;;;;;;4952489;28;20031;-64
2021/12/31 05:23:23;;;;;;;5.38;2.70;;;11.30;94.60;;;;;;4948861;28;20028;-64
2021/12/31 05:25:49;;;;;;;3.45;2.40;;;11.20;94.50;;;;;;4954879;28;20439;-64
2021/12/31 05:28:15;;;;;;;4.22;2.67;;;11.10;94.20;;;;;;4952664;28;20035;-64
2021/12/31 05:30:41;;;;;;;5.03;2.28;;;11.10;94.70;;;;;;4952933;28;20098;-64
2021/12/31 05:33:06;;;;;;;3.33;2.30;;;11.20;95.10;;;;;;4954308;28;20031;-64
2021/12/31 05:35:32;;;;;;;3.08;2.28;;;11.30;95.00;;;;;;4960408;28;20407;-64
2021/12/31 05:37:57;;;;;;;3.90;2.13;;;11.40;94.90;;;;;;4956111;28;20086;-64
2021/12/31 05:40:24;;;;;;;3.78;2.15;;;11.50;94.70;;;;;;4956459;28;20060;-64
2021/12/31 05:42:50;;;;;;;4.22;2.22;;;11.50;94.50;;;;;;4955734;28;20106;-65
2021/12/31 05:45:16;;;;;;;4.90;3.33;;;11.50;94.40;;;;;;4956019;28;20119;-64
2021/12/31 05:47:42;;;;;;;7.22;3.10;;;11.50;94.40;;;;;;4953999;28;20395;-64
2021/12/31 05:50:18;;;;;;;4.55;2.65;;;11.60;94.50;;;;;;4952990;28;20039;-64
2021/12/31 05:52:45;;;;;;;4.07;2.42;;;11.60;94.10;;;;;;4956739;28;20106;-64
2021/12/31 05:55:11;;;;;;;3.70;2.33;;;11.50;94.20;;;;;;4955752;28;20032;-64
2021/12/31 05:57:36;;;;;;;3.33;2.30;;;11.50;94.30;;;;;;4955595;28;20077;-64
2021/12/31 06:00:02;;;;;;;7.35;2.80;;;11.60;94.40;;;;;;4954733;28;20068;-64
2021/12/31 06:02:28;;;;;;;4.63;2.42;;;11.60;94.50;;;;;;4951798;28;20093;-65
2021/12/31 06:04:53;;;;;;;5.15;2.60;;;11.60;94.20;;;;;;4956320;28;20032;-65
2021/12/31 06:07:19;;;;;;;4.72;2.35;;;11.70;94.30;;;;;;4955818;28;20427;-65
2021/12/31 06:09:45;;;;;;;4.40;2.90;;;11.70;94.20;;;;;;4954144;28;20039;-65
2021/12/31 06:12:10;;;;;;;4.22;2.50;;;11.60;94.20;;;;;;4955100;28;20129;-65
2021/12/31 06:14:37;;;;;;;4.75;2.30;;;11.70;94.30;;;;;;4952778;28;20030;-65
2021/12/31 06:17:06;;;;;;;3.55;2.38;;;11.70;94.70;;;;;;4954445;28;20035;-65
2021/12/31 06:19:33;;;;;;;2.83;2.13;;;11.80;94.20;;;;;;4956722;28;20027;-65
2021/12/31 06:21:59;;;;;;;4.25;2.15;;;11.80;94.10;;;;;;4954967;28;20035;-65
2021/12/31 06:24:25;;;;;;;3.42;2.42;;;11.80;94.40;;;;;;4955295;28;20051;-65
2021/12/31 06:26:51;;;;;;;4.18;2.30;;;11.90;94.50;;;;;;4954507;28;20026;-65
2021/12/31 06:29:16;;;;;;;5.50;2.55;;;11.90;94.40;;;;;;4951584;28;20427;-65
2021/12/31 06:31:42;;;;;;;4.30;2.70;;;11.90;94.50;;;;;;4957090;28;20396;-65
2021/12/31 06:34:08;;;;;;;4.05;2.40;;;12.00;94.70;;;;;;4956486;28;20488;-65
2021/12/31 06:36:33;;;;;;;7.70;3.53;;;12.10;94.80;;;;;;4961052;28;20031;-64
2021/12/31 06:39:02;;;;;;;5.45;2.80;;;12.20;94.80;;;;;;4953265;28;20368;-64
2021/12/31 06:41:28;;;;;;;5.60;3.00;;;12.30;94.90;;;;;;4951246;28;20032;-64
2021/12/31 06:43:53;;;;;;;7.63;2.70;;;12.40;94.70;;;;;;4955929;28;20085;-64
2021/12/31 06:46:20;;;;;;;4.65;2.22;;;12.40;94.50;;;;;;4955387;28;20058;-64
2021/12/31 06:48:46;;;;;;;5.53;2.60;;;12.30;94.60;;;;;;4953131;28;20641;-64
2021/12/31 06:51:12;;;;;;;4.93;2.47;;;12.40;94.60;;;;;;4954701;28;20023;-64
2021/12/31 06:53:38;;;;;;;7.30;2.70;;;12.40;94.60;;;;;;4952184;28;20054;-64
2021/12/31 06:56:05;;;;;;;5.75;2.97;;;12.40;94.50;;;;;;4953485;28;20019;-64
2021/12/31 06:58:30;;;;;;;8.15;3.22;;;12.30;94.40;;;;;;4956008;28;20031;-64
2021/12/31 07:00:56;;;;;;;4.35;2.35;;;12.20;94.40;;;;;;4954817;28;20088;-64
2021/12/31 07:03:21;;;;;;;5.18;2.88;;;12.20;94.80;;;;;;4949146;28;20121;-64
2021/12/31 07:05:47;;;;;;;5.63;2.95;;;12.30;94.60;;;;;;4965432;28;20026;-64
2021/12/31 07:08:13;;;;;;;6.13;3.50;;;12.20;94.50;;;;;;4951362;28;20040;-64
2021/12/31 07:10:39;;;;;;;8.70;3.30;;;12.20;94.70;;;;;;4956395;28;20130;-64
2021/12/31 07:13:10;;;;;;;7.30;3.10;;;12.20;94.70;;;;;;4954523;28;20034;-65
2021/12/31 07:15:41;;;;;;;5.32;2.72;;;12.10;94.70;;;;;;4954513;28;20027;-64
2021/12/31 07:18:08;;;;;;;6.38;3.20;;;12.20;94.80;;;;;;4954176;28;20029;-64
2021/12/31 07:20:34;;;;;;;7.57;3.10;;;12.30;95.10;;;;;;4951489;28;20028;-64
2021/12/31 07:23:07;;;;;;;6.07;3.20;;;12.30;94.60;;;;;;4954237;28;20032;-64
2021/12/31 07:25:33;;;;;;;8.63;3.17;;;12.20;94.60;;;;;;4956347;28;20026;-64
2021/12/31 07:27:59;;;;;;;5.43;3.00;;;12.20;94.70;;;;;;4954303;28;20041;-64
2021/12/31 07:30:25;;;;;;;5.55;2.90;;;12.20;94.80;;;;;;4954288;28;20019;-64
2021/12/31 07:32:51;;;;;;;5.85;2.95;;;12.20;94.80;;;;;;4953178;28;20027;-64
2021/12/31 07:35:16;;;;;;;6.85;2.88;;;12.20;94.80;;;;;;4958361;28;20104;-64
2021/12/31 07:37:42;;;;;;;6.38;2.58;;;12.10;94.80;;;;;;4955892;28;20115;-64
2021/12/31 07:40:10;;;;;;;4.82;3.20;;;12.20;94.80;;;;;;4954024;28;20039;-64
2021/12/31 07:42:36;;;;;;;4.90;2.67;;;12.10;94.80;;;;;;4951157;28;20071;-64
2021/12/31 07:45:03;;;;;;;4.55;3.00;;;12.10;94.70;;;;;;4954080;28;20084;-64
2021/12/31 07:47:29;;;;;;;6.57;3.10;;;12.10;94.80;;;;;;4950343;28;20035;-65
2021/12/31 07:49:54;;;;;;;5.35;3.00;;;12.10;94.90;;;;;;4954996;28;20543;-64
2021/12/31 07:52:20;;;;;;;7.72;2.88;;;12.10;94.90;;;;;;4954227;28;20102;-64
2021/12/31 07:54:46;;;;;;;5.80;3.40;;;12.10;94.90;;;;;;4949700;28;20032;-64
2021/12/31 07:57:12;;;;;;;6.60;2.95;;;12.00;94.90;;;;;;4945124;28;20388;-64
2021/12/31 07:59:37;;;;;;;4.88;3.00;;;12.00;94.90;;;;;;4940229;28;20323;-64
2021/12/31 08:02:03;;;;;;;6.43;2.88;;;12.10;95.10;;;;;;4952458;28;20042;-65
2021/12/31 08:04:29;;;;;;;6.80;2.90;;;12.10;94.90;;;;;;4954835;28;20027;-64
2021/12/31 08:06:55;;;;;;;7.68;4.90;;;12.10;94.90;;;;;;4953618;28;20027;-64
2021/12/31 08:09:20;;;;;;;6.57;3.72;;;12.20;95.10;;;;;;4953408;28;20023;-64
2021/12/31 08:11:46;;;;;;;7.55;3.28;;;12.20;95.00;;;;;;4952231;28;20051;-64
2021/12/31 08:14:11;;;;;;;6.63;3.80;;;12.20;94.90;;;;;;4950854;28;20388;-64
2021/12/31 08:16:37;;;;;;;6.47;3.65;;;12.10;94.60;;;;;;4955277;28;20035;-64
2021/12/31 08:19:03;;;;;;;5.43;3.17;;;12.00;94.80;;;;;;4953662;28;20023;-64
2021/12/31 08:21:29;;;;;;;5.53;3.40;;;12.00;95.00;;;;;;4952096;28;20031;-64
2021/12/31 08:23:54;;;;;;;6.43;3.00;;;12.00;95.40;;;;;;4953416;28;20023;-64
2021/12/31 08:26:20;;;;;;;6.78;3.58;;;12.00;95.00;;;;;;4949412;28;20038;-65
2021/12/31 08:28:46;;;;;;;6.68;3.25;;;12.00;95.00;;;;;;4955195;28;20031;-65
2021/12/31 08:31:12;;;;;;;6.15;3.22;;;12.20;95.40;;;;;;4953177;28;20035;-65
2021/12/31 08:33:37;;;;;;;9.07;3.25;;;12.30;95.30;;;;;;4953187;28;20062;-65
2021/12/31 08:36:03;;;;;;;6.00;3.40;;;12.40;95.10;;;;;;4961235;28;20118;-65
2021/12/31 08:38:29;;;;;;;7.03;4.07;;;12.40;94.90;;;;;;4949807;28;20427;-65
2021/12/31 08:40:56;;;;;;;6.55;3.15;;;12.30;94.60;;;;;;4954235;28;20392;-65
2021/12/31 08:43:22;;;;;;;5.95;3.10;;;12.30;94.90;;;;;;4951715;28;20427;-65
2021/12/31 08:45:47;;;;;;;6.43;2.92;;;12.40;94.90;;;;;;4949504;28;20102;-65
2021/12/31 08:48:13;;;;;;;3.88;2.63;;;12.40;94.80;;;;;;4944685;28;20490;-65
2021/12/31 08:50:39;;;;;;;5.57;2.92;;;12.50;94.80;;;;;;4950901;28;20023;-65
2021/12/31 08:53:05;;;;;;;5.35;2.88;;;12.40;94.80;;;;;;4937970;28;20047;-65
2021/12/31 08:55:31;;;;;;;4.18;2.60;;;12.50;94.60;;;;;;4954464;28;20034;-65
2021/12/31 08:57:57;;;;;;;4.70;2.95;;;12.50;94.50;;;;;;4953108;28;20031;-65
2021/12/31 09:00:22;;;;;;;5.47;2.55;;;12.40;94.40;;;;;;4952547;28;20085;-65
2021/12/31 09:02:50;;;;;;;5.07;2.83;;;12.40;94.70;;;;;;4952015;28;20030;-65
2021/12/31 09:05:16;;;;;;;5.03;2.97;;;12.40;94.80;;;;;;4949563;28;20030;-65
2021/12/31 09:07:43;;;;;;;4.05;2.70;;;12.50;94.50;;;;;;4957625;28;20468;-65
2021/12/31 09:10:09;;;;;;;4.35;2.70;;;12.50;94.80;;;;;;4954944;28;20039;-65
2021/12/31 09:12:36;;;;;;;3.35;2.38;;;12.60;94.80;;;;;;4956135;28;20036;-65
2021/12/31 09:15:02;;;;;;;3.97;2.60;;;12.70;94.80;;;;;;4956375;28;20483;-65
2021/12/31 09:17:28;;;;;;;3.83;2.78;;;12.80;95.10;;;;;;4951386;28;20407;-65
2021/12/31 09:19:53;;;;;;;4.25;2.60;;;13.20;95.30;;;;;;4956650;28;20027;-65
2021/12/31 09:22:19;;;;;;;5.03;2.80;;;13.40;94.60;;;;;;4954795;28;20075;-65
2021/12/31 09:24:45;;;;;;;3.60;2.58;;;13.70;94.80;;;;;;4956081;28;20051;-64
2021/12/31 09:27:11;;;;;;;5.00;2.80;;;14.10;94.90;;;;;;4955617;28;20042;-65
2021/12/31 09:29:36;;;;;;;3.90;2.60;;;14.20;93.80;;;;;;4953477;28;20019;-65
2021/12/31 09:32:02;;;;;;;3.40;2.53;;;14.20;93.20;;;;;;4955513;28;20507;-65
2021/12/31 09:34:28;;;;;;;5.25;3.00;;;14.50;94.30;;;;;;4958782;28;20011;-65
2021/12/31 09:36:54;;;;;;;3.15;2.60;;;14.80;93.80;;;;;;4959208;28;20035;-65
2021/12/31 09:39:19;;;;;;;4.25;2.90;;;14.90;93.10;;;;;;4949634;28;20031;-64
2021/12/31 09:41:45;;;;;;;4.97;2.53;;;14.70;91.80;;;;;;4953847;28;20103;-65
2021/12/31 09:44:14;;;;;;;2.83;2.20;;;14.40;92.40;;;;;;4953014;28;20055;-65
2021/12/31 09:46:40;;;;;;;5.15;2.33;;;14.20;92.40;;;;;;4957640;28;20084;-65
2021/12/31 09:49:06;;;;;;;3.03;2.15;;;14.10;92.70;;;;;;4955808;28;20023;-65
2021/12/31 09:51:33;;;;;;;4.75;2.80;;;14.00;92.90;;;;;;4955489;28;20034;-65
2021/12/31 09:54:00;;;;;;;4.13;2.60;;;13.90;93.10;;;;;;4955757;28;20046;-65
2021/12/31 09:56:29;;;;;;;4.10;2.55;;;13.80;93.20;;;;;;4951067;28;20034;-65
2021/12/31 09:58:54;;;;;;;3.83;2.40;;;13.80;93.30;;;;;;4956814;28;20031;-66
2021/12/31 10:01:20;;;;;;;5.15;2.55;;;13.80;93.40;;;;;;4955891;28;20031;-65
2021/12/31 10:03:56;;;;;;;4.28;2.30;;;13.70;93.30;;;;;;4955584;28;20133;-65
2021/12/31 10:06:23;;;;;;;2.83;2.17;;;13.70;93.50;;;;;;4955486;28;20024;-65
2021/12/31 10:08:48;;;;;;;4.82;2.65;;;13.70;93.60;;;;;;4954629;28;20510;-65
2021/12/31 10:11:20;;;;;;;3.58;2.85;;;13.70;93.60;;;;;;4951540;28;20051;-65
2021/12/31 10:13:51;;;;;;;4.20;2.58;;;13.80;93.60;;;;;;4957084;28;20019;-65
2021/12/31 10:16:28;;;;;;;4.15;2.75;;;13.80;93.40;;;;;;4955442;28;20480;-65
2021/12/31 10:19:13;;;;;;;5.53;2.63;;;13.70;93.30;;;;;;4954522;28;20031;-64
2021/12/31 10:21:54;;;;;;;4.55;2.17;;;13.70;93.50;;;;;;4954848;28;20024;-65
2021/12/31 10:24:23;;;;;;;4.32;2.38;;;13.80;93.70;;;;;;4955257;28;20027;-65
2021/12/31 10:26:52;;;;;;;3.80;2.28;;;13.70;93.50;;;;;;4953823;28;20072;-65
2021/12/31 10:29:19;;;;;;;3.63;2.10;;;13.80;93.60;;;;;;4950223;28;20035;-65
2021/12/31 10:31:47;;;;;;;3.70;2.25;;;13.80;93.60;;;;;;4957127;28;20427;-65
2021/12/31 10:34:33;;;;;;;4.32;2.28;;;13.80;93.60;;;;;;4956650;28;20101;-66
2021/12/31 10:37:03;;;;;;;4.50;2.35;;;13.80;93.80;;;;;;4960129;28;20487;-65
2021/12/31 10:39:37;;;;;;;4.28;2.20;;;13.90;93.80;;;;;;4961220;28;20510;-67
2021/12/31 10:42:04;;;;;;;3.92;2.15;;;13.90;93.60;;;;;;4954944;28;20365;-66
2021/12/31 10:44:50;;;;;;;5.95;2.40;;;13.90;93.60;;;;;;4951519;28;20042;-64
2021/12/31 10:47:23;;;;;;;4.10;2.00;;;14.00;93.80;;;;;;4951419;28;20043;-66
2021/12/31 10:50:00;;;;;;;4.82;2.75;;;14.00;93.40;;;;;;4956726;28;20027;-65
2021/12/31 10:52:40;;;;;;;4.05;2.47;;;14.00;93.50;;;;;;4955154;28;20381;-65
2021/12/31 10:55:22;;;;;;;4.28;2.35;;;13.90;93.40;;;;;;4954232;28;20027;-65
2021/12/31 10:57:51;;;;;;;4.93;2.67;;;13.90;93.40;;;;;;4954665;28;20023;-65
2021/12/31 11:00:19;;;;;;;3.33;2.33;;;13.80;93.40;;;;;;4952725;28;20035;-65
2021/12/31 11:02:46;;;;;;;4.90;2.53;;;13.80;93.40;;;;;;4939158;28;20459;-65
2021/12/31 11:05:13;;;;;;;4.38;2.67;;;13.70;93.60;;;;;;4950987;28;20032;-65
2021/12/31 11:07:40;;;;;;;3.78;2.45;;;13.80;93.70;;;;;;4956014;28;20027;-65
2021/12/31 11:10:08;;;;;;;5.03;2.72;;;13.70;93.60;;;;;;4954179;28;20031;-65
2021/12/31 11:12:34;;;;;;;4.50;2.50;;;13.80;93.80;;;;;;4952353;28;20453;-65
2021/12/31 11:15:01;;;;;;;5.80;3.53;;;13.80;93.70;;;;;;4951722;28;20506;-65
2021/12/31 11:17:26;;;;;;;5.13;2.60;;;13.80;93.80;;;;;;4950142;28;20023;-65
2021/12/31 11:19:53;;;;;;;5.28;2.88;;;13.90;93.60;;;;;;4956291;28;20507;-65
2021/12/31 11:22:25;;;;;;;5.05;2.85;;;13.80;93.60;;;;;;4954392;28;20512;-65
2021/12/31 11:24:51;;;;;;;6.97;2.63;;;13.80;93.70;;;;;;4954116;28;20061;-65
2021/12/31 11:27:28;;;;;;;5.22;2.95;;;14.00;94.10;;;;;;4954274;28;20058;-65
2021/12/31 11:29:55;;;;;;;4.28;2.70;;;14.10;93.70;;;;;;4952442;28;20467;-65
2021/12/31 11:32:42;;;;;;;5.05;2.88;;;14.10;93.60;;;;;;4950412;28;20523;-65
2021/12/31 11:35:46;;;;;;;6.32;2.53;;;14.10;93.80;;;;;;4963729;28;20523;-65
2021/12/31 11:38:24;;;;;;;4.57;2.40;;;14.20;93.90;;;;;;4963865;28;20030;-65
2021/12/31 11:41:14;;;;;;;4.38;2.63;;;14.30;93.70;;;;;;4955789;28;20138;-65
2021/12/31 11:43:41;;;;;;;6.63;2.80;;;14.50;93.90;;;;;;4950024;28;20037;-65
2021/12/31 11:46:10;;;;;;;4.72;2.60;;;14.50;93.50;;;;;;4954674;28;20020;-65
2021/12/31 11:48:51;;;;;;;5.05;2.33;;;14.60;93.50;;;;;;4953832;28;20513;-64
2021/12/31 11:51:20;;;;;;;5.43;2.67;;;14.60;93.30;;;;;;4950950;28;20507;-64
2021/12/31 11:54:00;;;;;;;5.68;2.85;;;14.60;93.30;;;;;;4951532;28;20050;-65
2021/12/31 11:56:34;;;;;;;6.20;2.63;;;14.60;93.30;;;;;;4957325;28;20034;-65
2021/12/31 11:59:09;;;;;;;6.28;3.08;;;14.60;93.30;;;;;;4969025;28;20023;-65
2021/12/31 12:01:51;;;;;;;4.78;2.60;;;14.60;93.40;;;;;;4959125;28;20031;-65
2021/12/31 12:04:28;;;;;;;5.55;2.88;;;14.70;93.20;;;;;;4948401;28;20039;-65
2021/12/31 12:07:01;;;;;;;6.32;3.25;;;14.70;93.30;;;;;;4953434;28;20492;-66
2021/12/31 12:09:36;;;;;;;6.38;3.20;;;14.70;93.30;;;;;;4953542;28;20039;-65
2021/12/31 12:12:10;;;;;;;6.10;2.97;;;14.80;93.30;;;;;;4963800;28;20495;-65
2021/12/31 12:14:47;;;;;;;4.45;2.72;;;14.70;93.30;;;;;;4950495;28;20023;-65
2021/12/31 12:17:37;;;;;;;6.88;2.72;;;14.80;93.40;;;;;;4949550;28;20119;-65
2021/12/31 12:20:03;;;;;;;4.88;2.55;;;14.80;93.50;;;;;;4956855;28;20031;-65
2021/12/31 12:22:40;;;;;;;5.75;2.53;;;15.00;93.50;;;;;;4961721;28;20103;-65
2021/12/31 12:25:18;;;;;;;5.30;2.65;;;15.10;93.40;;;;;;4955156;28;20031;-65
2021/12/31 12:27:53;;;;;;;5.97;3.08;;;15.10;93.20;;;;;;4959665;28;20364;-65
2021/12/31 12:30:20;;;;;;;5.60;2.80;;;15.20;93.40;;;;;;4961179;28;20127;-65
2021/12/31 12:35:22;;;;;;;5.28;2.80;;;15.30;92.90;;;;;;4950549;28;20065;-65
2021/12/31 12:38:04;;;;;;;7.88;3.28;;;15.20;92.70;;;;;;4954494;28;20031;-65
2021/12/31 12:40:43;;;;;;;3.78;2.67;;;15.10;93.00;;;;;;4965827;28;20066;-65
2021/12/31 12:43:32;;;;;;;5.07;2.50;;;15.10;93.00;;;;;;4957525;28;20476;-65
2021/12/31 12:46:13;;;;;;;4.60;2.60;;;15.00;93.10;;;;;;4956502;28;20023;-65
2021/12/31 12:48:45;;;;;;;7.70;2.55;;;15.00;93.10;;;;;;4956642;28;20093;-65
2021/12/31 12:51:13;;;;;;;5.00;2.33;;;15.00;93.10;;;;;;4955869;28;20402;-66
2021/12/31 12:53:42;;;;;;;6.72;3.10;;;15.00;93.20;;;;;;4953450;28;20102;-65
2021/12/31 12:56:13;;;;;;;5.18;2.28;;;14.90;93.10;;;;;;4951746;28;20019;-65
2021/12/31 12:58:50;;;;;;;6.00;3.10;;;14.90;93.10;;;;;;4952634;28;20373;-65